Terminal Aerodrome Forecast
Issued by NWS

Home | Current Version | Previous Version | Text Only | Print | Product List | Glossary On
Versions: 1 2 3 4 5 6 7 8 9 10 11 12 13 14
000
FTUS46 KMTR 022333
TAFOAK
TAF
KOAK 022333Z 0300/0406 26018KT P6SM SCT014 SCT180
     FM030300 27014KT P6SM SCT015
     FM030600 27009KT P6SM OVC015
     FM031800 25011KT P6SM SCT018
     FM032100 27015KT P6SM FEW015
     FM040500 27010KT P6SM FEW015 SCT200=

USA.gov is the U.S. government's official web portal to all federal, state and local government web resources and services.